Time;durP1;ratioP1;P1;durP2;ratioP2;P2;SDS_P1;SDS_P2;PMS_P1;PMS_P2;Temp;Humidity;BMP_temperature;BMP_pressure;BME280_temperature;BME280_humidity;BME280_pressure;Samples;Min_cycle;Max_cycle;Signal;HPM_P1;HPM_P2
2021/06/28 00:00:23;;;;;;;6.45;3.50;;;;;;;;;;5011291;28;20082;-42
2021/06/28 00:02:50;;;;;;;3.75;2.50;;;;;;;;;;5018119;28;20073;-48
2021/06/28 00:05:18;;;;;;;3.25;2.33;;;;;;;;;;5016593;28;20052;-47
2021/06/28 00:07:45;;;;;;;3.88;3.08;;;;;;;;;;5017059;28;20046;-46
2021/06/28 00:10:13;;;;;;;6.15;2.65;;;;;;;;;;5002853;28;20137;-41
2021/06/28 00:12:41;;;;;;;3.25;2.72;;;;;;;;;;5010780;28;20054;-40
2021/06/28 00:15:10;;;;;;;4.00;2.60;;;;;;;;;;5009337;28;20058;-41
2021/06/28 00:17:37;;;;;;;3.80;2.80;;;;;;;;;;5007754;28;20074;-41
2021/06/28 00:20:04;;;;;;;2.80;2.20;;;;;;;;;;4999833;28;20184;-46
2021/06/28 00:22:31;;;;;;;3.42;2.30;;;;;;;;;;4992601;28;20111;-46
2021/06/28 00:24:58;;;;;;;3.88;2.60;;;;;;;;;;5010479;28;20050;-41
2021/06/28 00:27:25;;;;;;;4.22;2.33;;;;;;;;;;5025207;28;20041;-40
2021/06/28 00:30:08;;;;;;;3.83;2.25;;;;;;;;;;5011670;28;20052;-40
2021/06/28 00:32:35;;;;;;;3.20;2.00;;;;;;;;;;5014501;28;20112;-41
2021/06/28 00:35:02;;;;;;;2.78;2.17;;;;;;;;;;5013257;28;20081;-45
2021/06/28 00:37:29;;;;;;;3.63;2.58;;;;;;;;;;4992931;28;20401;-40
2021/06/28 00:39:56;;;;;;;3.30;2.28;;;;;;;;;;5010736;28;20078;-44
2021/06/28 00:42:25;;;;;;;3.28;2.40;;;;;;;;;;5013949;28;20054;-41
2021/06/28 00:44:52;;;;;;;2.67;2.10;;;;;;;;;;5014126;28;20147;-41
2021/06/28 00:47:19;;;;;;;3.25;2.10;;;;;;;;;;5006576;28;20050;-40
2021/06/28 00:49:47;;;;;;;2.60;1.98;;;;;;;;;;5006611;28;20045;-44
2021/06/28 00:52:14;;;;;;;4.22;2.00;;;;;;;;;;5018688;28;20101;-41
2021/06/28 00:54:41;;;;;;;3.22;2.25;;;;;;;;;;5013799;28;20084;-42
2021/06/28 00:57:08;;;;;;;2.08;1.88;;;;;;;;;;5014244;28;20100;-41
2021/06/28 00:59:36;;;;;;;2.88;2.20;;;;;;;;;;5011688;28;20061;-44
2021/06/28 01:02:04;;;;;;;2.63;1.70;;;;;;;;;;5013897;28;20057;-44
2021/06/28 01:04:31;;;;;;;3.10;2.20;;;;;;;;;;5014136;28;20050;-44
2021/06/28 01:06:58;;;;;;;5.85;2.13;;;;;;;;;;5012301;28;20474;-47
2021/06/28 01:09:25;;;;;;;2.40;2.00;;;;;;;;;;5003049;28;20136;-45
2021/06/28 01:11:52;;;;;;;2.60;2.03;;;;;;;;;;5016145;28;20088;-45
2021/06/28 01:14:19;;;;;;;4.00;1.75;;;;;;;;;;5014159;28;20137;-44
2021/06/28 01:16:45;;;;;;;2.90;1.80;;;;;;;;;;5002973;28;20544;-44
2021/06/28 01:19:13;;;;;;;2.28;1.63;;;;;;;;;;4994317;28;20042;-44
2021/06/28 01:21:41;;;;;;;2.95;2.00;;;;;;;;;;5006652;28;20081;-44
2021/06/28 01:24:08;;;;;;;3.30;1.95;;;;;;;;;;4994393;28;20463;-46
2021/06/28 01:26:35;;;;;;;2.90;1.70;;;;;;;;;;5011238;28;20046;-47
2021/06/28 01:29:03;;;;;;;2.83;1.73;;;;;;;;;;4996076;28;20080;-45
2021/06/28 01:31:36;;;;;;;2.85;1.60;;;;;;;;;;4996623;28;20060;-45
2021/06/28 01:34:03;;;;;;;3.17;2.38;;;;;;;;;;5009030;28;20077;-46
2021/06/28 01:36:40;;;;;;;4.05;2.00;;;;;;;;;;5008897;28;20549;-42
2021/06/28 01:39:07;;;;;;;4.10;1.77;;;;;;;;;;5014420;28;20504;-44
2021/06/28 01:41:34;;;;;;;2.78;1.95;;;;;;;;;;5009957;28;20052;-45
2021/06/28 01:44:00;;;;;;;2.50;1.77;;;;;;;;;;4995145;28;20050;-44
2021/06/28 01:46:27;;;;;;;2.70;1.70;;;;;;;;;;5011912;28;20042;-47
2021/06/28 01:48:54;;;;;;;3.05;2.13;;;;;;;;;;5003664;28;20146;-46
2021/06/28 01:51:21;;;;;;;2.95;1.80;;;;;;;;;;5011317;28;20108;-42
2021/06/28 01:53:47;;;;;;;2.88;1.80;;;;;;;;;;5002446;28;20038;-45
2021/06/28 01:56:14;;;;;;;1.80;1.65;;;;;;;;;;5009490;28;20154;-43
2021/06/28 01:58:41;;;;;;;3.13;1.70;;;;;;;;;;5018584;28;20038;-48
2021/06/28 02:01:08;;;;;;;4.15;1.80;;;;;;;;;;5008396;28;20041;-46
2021/06/28 02:03:37;;;;;;;2.25;1.73;;;;;;;;;;5010510;28;20050;-44
2021/06/28 02:06:05;;;;;;;2.22;1.88;;;;;;;;;;5012306;28;20049;-44
2021/06/28 02:08:33;;;;;;;2.22;1.80;;;;;;;;;;4994873;28;20108;-44
2021/06/28 02:11:01;;;;;;;2.75;1.80;;;;;;;;;;5008134;28;20070;-45
2021/06/28 02:13:29;;;;;;;3.25;1.63;;;;;;;;;;4984364;28;20046;-42
2021/06/28 02:15:57;;;;;;;3.28;1.67;;;;;;;;;;5011641;28;20084;-46
2021/06/28 02:18:25;;;;;;;2.13;1.52;;;;;;;;;;5018687;28;20454;-47
2021/06/28 02:20:52;;;;;;;3.08;1.85;;;;;;;;;;5026773;28;20124;-46
2021/06/28 02:23:22;;;;;;;2.00;1.60;;;;;;;;;;5003305;28;20038;-46
2021/06/28 02:25:50;;;;;;;2.47;2.05;;;;;;;;;;5003327;28;20042;-44
2021/06/28 02:28:17;;;;;;;2.72;1.88;;;;;;;;;;5013451;28;20046;-43
2021/06/28 02:30:44;;;;;;;2.33;1.60;;;;;;;;;;5014988;28;20077;-44
2021/06/28 02:33:10;;;;;;;2.78;1.60;;;;;;;;;;5005424;28;20081;-44
2021/06/28 02:35:37;;;;;;;3.70;1.58;;;;;;;;;;5008218;28;20147;-46
2021/06/28 02:38:05;;;;;;;5.53;1.65;;;;;;;;;;5011652;28;20050;-44
2021/06/28 02:40:32;;;;;;;2.28;1.60;;;;;;;;;;5000902;28;20073;-47
2021/06/28 02:43:18;;;;;;;2.90;1.83;;;;;;;;;;4970923;28;20057;-47
2021/06/28 02:45:45;;;;;;;2.38;1.67;;;;;;;;;;5011059;28;20108;-46
2021/06/28 02:48:12;;;;;;;4.10;1.60;;;;;;;;;;5007603;28;20090;-45
2021/06/28 02:50:39;;;;;;;1.67;1.40;;;;;;;;;;5002951;28;20415;-44
2021/06/28 02:53:06;;;;;;;2.65;1.80;;;;;;;;;;5008726;28;20116;-46
2021/06/28 02:55:34;;;;;;;2.03;1.75;;;;;;;;;;5014126;28;20085;-47
2021/06/28 02:58:01;;;;;;;2.38;1.63;;;;;;;;;;5021709;28;20084;-49
2021/06/28 03:00:28;;;;;;;3.35;1.92;;;;;;;;;;5005186;28;20096;-49
2021/06/28 03:03:06;;;;;;;2.30;1.60;;;;;;;;;;5058145;28;20419;-47
2021/06/28 03:05:45;;;;;;;3.67;1.73;;;;;;;;;;5066601;28;20909;-46
2021/06/28 03:08:23;;;;;;;3.92;1.67;;;;;;;;;;5060836;28;20425;-48
2021/06/28 03:11:01;;;;;;;2.67;1.65;;;;;;;;;;5058634;28;20427;-46
2021/06/28 03:13:39;;;;;;;3.40;1.88;;;;;;;;;;5063641;28;20436;-46
2021/06/28 03:16:18;;;;;;;2.72;1.80;;;;;;;;;;5062501;28;20404;-46
2021/06/28 03:18:55;;;;;;;3.25;1.70;;;;;;;;;;5125746;27;20419;-44
2021/06/28 03:21:34;;;;;;;3.28;2.05;;;;;;;;;;5060556;28;20477;-43
2021/06/28 03:24:12;;;;;;;2.90;2.08;;;;;;;;;;5066514;28;20836;-46
2021/06/28 03:26:50;;;;;;;2.92;2.00;;;;;;;;;;5128812;27;20419;-45
2021/06/28 03:29:28;;;;;;;3.08;2.03;;;;;;;;;;5086019;27;20429;-48
2021/06/28 03:32:07;;;;;;;3.40;1.70;;;;;;;;;;5060079;28;20437;-43
2021/06/28 03:34:45;;;;;;;4.05;1.98;;;;;;;;;;5069061;28;20404;-45
2021/06/28 03:37:23;;;;;;;3.35;1.70;;;;;;;;;;5047658;28;20491;-49
2021/06/28 03:40:02;;;;;;;3.63;2.00;;;;;;;;;;5056353;28;20446;-43
2021/06/28 03:42:40;;;;;;;2.83;2.00;;;;;;;;;;5044894;28;20448;-44
2021/06/28 03:45:18;;;;;;;4.18;1.92;;;;;;;;;;5068136;28;20492;-42
2021/06/28 03:47:56;;;;;;;2.83;1.83;;;;;;;;;;5047803;28;20424;-44
2021/06/28 03:50:35;;;;;;;3.80;1.92;;;;;;;;;;5047376;28;20827;-45
2021/06/28 03:53:24;;;;;;;4.85;2.63;;;;;;;;;;5056815;28;20461;-50
2021/06/28 03:56:06;;;;;;;3.72;1.85;;;;;;;;;;5069000;28;20412;-50
2021/06/28 03:58:44;;;;;;;4.13;2.05;;;;;;;;;;5064465;28;20434;-45
2021/06/28 04:01:22;;;;;;;2.97;2.00;;;;;;;;;;5066564;28;20423;-44
2021/06/28 04:04:00;;;;;;;2.63;1.80;;;;;;;;;;5068297;28;20481;-46
2021/06/28 04:06:38;;;;;;;2.20;1.85;;;;;;;;;;5061941;28;20427;-46
2021/06/28 04:09:16;;;;;;;2.78;2.08;;;;;;;;;;5067106;28;20431;-45
2021/06/28 04:11:54;;;;;;;4.55;2.30;;;;;;;;;;5061064;28;20489;-46
2021/06/28 04:14:33;;;;;;;3.78;2.20;;;;;;;;;;5047029;28;20485;-48
2021/06/28 04:17:11;;;;;;;2.90;2.28;;;;;;;;;;5062153;28;20436;-46
2021/06/28 04:19:49;;;;;;;5.40;2.58;;;;;;;;;;5069050;28;20407;-40
2021/06/28 04:22:27;;;;;;;2.92;2.25;;;;;;;;;;5127421;27;20793;-43
2021/06/28 04:25:07;;;;;;;3.72;2.72;;;;;;;;;;5109302;27;20473;-41
2021/06/28 04:27:44;;;;;;;3.75;2.30;;;;;;;;;;5064761;28;20966;-42
2021/06/28 04:30:22;;;;;;;3.38;2.50;;;;;;;;;;5064880;28;20479;-42
2021/06/28 04:33:00;;;;;;;3.47;2.30;;;;;;;;;;5062459;28;20475;-48
2021/06/28 04:35:38;;;;;;;5.28;2.83;;;;;;;;;;5067609;28;20420;-44
2021/06/28 04:38:16;;;;;;;5.38;2.90;;;;;;;;;;5057367;28;20417;-47
2021/06/28 04:40:55;;;;;;;3.47;2.67;;;;;;;;;;5095211;27;20455;-44
2021/06/28 04:43:33;;;;;;;3.50;2.80;;;;;;;;;;5068186;28;20880;-44
2021/06/28 04:46:11;;;;;;;5.88;2.88;;;;;;;;;;5061204;28;20420;-47
2021/06/28 04:48:49;;;;;;;5.45;2.67;;;;;;;;;;5040106;28;20910;-47
2021/06/28 04:51:27;;;;;;;4.10;2.80;;;;;;;;;;5060907;28;20416;-45
2021/06/28 04:54:06;;;;;;;5.70;3.10;;;;;;;;;;5109421;27;20405;-45
2021/06/28 04:56:44;;;;;;;3.85;2.95;;;;;;;;;;5052105;28;20424;-48
2021/06/28 04:59:22;;;;;;;3.53;2.83;;;;;;;;;;5067679;28;20485;-45
2021/06/28 05:02:00;;;;;;;3.90;3.30;;;;;;;;;;5055412;28;20424;-46
2021/06/28 05:04:38;;;;;;;3.80;3.40;;;;;;;;;;5048274;28;20436;-50
2021/06/28 05:07:17;;;;;;;6.75;3.10;;;;;;;;;;5049253;28;20444;-49
2021/06/28 05:09:56;;;;;;;4.68;3.47;;;;;;;;;;5045091;28;22292;-45
2021/06/28 05:12:33;;;;;;;5.43;3.30;;;;;;;;;;5053913;28;20425;-44
2021/06/28 05:15:12;;;;;;;5.57;3.30;;;;;;;;;;5061415;28;20427;-47
2021/06/28 05:17:49;;;;;;;6.75;3.22;;;;;;;;;;5067855;28;20438;-48
2021/06/28 05:20:28;;;;;;;5.47;3.88;;;;;;;;;;5108330;27;20436;-45
2021/06/28 05:23:06;;;;;;;5.03;3.45;;;;;;;;;;5101552;27;20427;-48
2021/06/28 05:25:45;;;;;;;4.70;3.53;;;;;;;;;;5065604;28;20489;-46
2021/06/28 05:28:22;;;;;;;7.72;3.10;;;;;;;;;;5065976;28;20423;-45
2021/06/28 05:31:01;;;;;;;5.13;3.85;;;;;;;;;;5106341;27;20830;-46
2021/06/28 05:33:39;;;;;;;4.78;3.30;;;;;;;;;;5066375;28;20861;-45
2021/06/28 05:36:17;;;;;;;5.47;3.30;;;;;;;;;;5107501;27;20474;-47
2021/06/28 05:38:55;;;;;;;5.30;3.85;;;;;;;;;;5043426;28;20434;-44
2021/06/28 05:41:33;;;;;;;4.47;3.60;;;;;;;;;;5072122;27;20516;-48
2021/06/28 05:44:11;;;;;;;4.10;3.70;;;;;;;;;;5066195;28;20485;-48
2021/06/28 05:46:49;;;;;;;7.40;3.58;;;;;;;;;;5046231;28;20435;-48
2021/06/28 05:49:30;;;;;;;4.20;3.33;;;;;;;;;;5049245;28;20421;-47
2021/06/28 05:52:08;;;;;;;8.27;3.65;;;;;;;;;;5053917;28;20434;-47
2021/06/28 05:54:46;;;;;;;6.53;4.32;;;;;;;;;;5043282;28;20429;-47
2021/06/28 05:57:24;;;;;;;4.88;3.83;;;;;;;;;;5104527;27;20431;-46
2021/06/28 06:00:04;;;;;;;4.85;4.10;;;;;;;;;;5056719;28;20440;-49
2021/06/28 06:02:49;;;;;;;5.72;3.83;;;;;;;;;;5064971;28;20438;-48
2021/06/28 06:05:27;;;;;;;4.93;4.07;;;;;;;;;;5066481;28;20529;-42
2021/06/28 06:08:05;;;;;;;5.28;3.83;;;;;;;;;;5039249;28;20430;-47
2021/06/28 06:10:43;;;;;;;3.70;3.33;;;;;;;;;;5062756;28;20485;-40
2021/06/28 06:13:21;;;;;;;3.65;3.20;;;;;;;;;;5122287;27;20443;-50
2021/06/28 06:15:59;;;;;;;6.05;3.72;;;;;;;;;;5060853;28;20444;-52
2021/06/28 06:18:37;;;;;;;6.47;3.58;;;;;;;;;;5056260;28;21469;-48
2021/06/28 06:21:16;;;;;;;6.20;3.38;;;;;;;;;;5087774;27;20422;-45
2021/06/28 06:23:54;;;;;;;4.30;3.28;;;;;;;;;;5068308;28;20430;-45
2021/06/28 06:26:32;;;;;;;6.40;3.92;;;;;;;;;;5066303;28;20434;-48
2021/06/28 06:29:10;;;;;;;6.10;3.90;;;;;;;;;;5067410;28;20427;-45
2021/06/28 06:31:48;;;;;;;4.13;3.42;;;;;;;;;;5123350;27;20430;-49
2021/06/28 06:34:27;;;;;;;7.38;3.70;;;;;;;;;;5065972;28;20436;-47
2021/06/28 06:37:05;;;;;;;5.10;3.78;;;;;;;;;;5068640;28;20420;-49
2021/06/28 06:39:43;;;;;;;6.03;3.42;;;;;;;;;;5070425;28;20809;-46
2021/06/28 06:42:21;;;;;;;5.22;3.75;;;;;;;;;;5059153;28;20897;-45
2021/06/28 06:44:59;;;;;;;7.78;4.07;;;;;;;;;;5068774;28;20415;-47
2021/06/28 06:47:38;;;;;;;4.10;3.40;;;;;;;;;;5062030;28;20435;-49
2021/06/28 06:50:16;;;;;;;5.60;3.60;;;;;;;;;;5058023;28;20447;-47
2021/06/28 06:52:54;;;;;;;4.90;3.28;;;;;;;;;;5040888;28;20433;-44
2021/06/28 06:55:34;;;;;;;5.13;3.78;;;;;;;;;;5070205;28;20430;-46
2021/06/28 06:58:12;;;;;;;6.53;3.83;;;;;;;;;;5068520;28;20438;-45
2021/06/28 07:00:50;;;;;;;5.00;3.50;;;;;;;;;;5055833;28;20503;-45
2021/06/28 07:03:28;;;;;;;4.78;3.53;;;;;;;;;;5067083;28;20426;-48
2021/06/28 07:06:07;;;;;;;7.43;3.50;;;;;;;;;;5057521;28;20428;-50
2021/06/28 07:08:45;;;;;;;5.53;3.38;;;;;;;;;;5065852;28;20444;-47
2021/06/28 07:11:25;;;;;;;4.97;3.67;;;;;;;;;;5099646;27;20448;-49
2021/06/28 07:14:03;;;;;;;5.22;3.67;;;;;;;;;;5068122;28;20750;-46
2021/06/28 07:16:41;;;;;;;8.80;3.88;;;;;;;;;;5047915;28;21010;-47
2021/06/28 07:19:19;;;;;;;10.60;3.17;;;;;;;;;;5076584;27;20431;-45
2021/06/28 07:21:57;;;;;;;4.57;2.97;;;;;;;;;;5060545;28;20449;-49
2021/06/28 07:24:36;;;;;;;3.83;2.55;;;;;;;;;;5113975;27;20416;-48
2021/06/28 07:27:14;;;;;;;4.38;2.95;;;;;;;;;;5076496;28;20492;-46
2021/06/28 07:29:52;;;;;;;4.28;2.30;;;;;;;;;;5061043;28;20425;-46
2021/06/28 07:32:30;;;;;;;5.97;3.08;;;;;;;;;;5064821;28;20507;-47
2021/06/28 07:35:09;;;;;;;5.13;2.65;;;;;;;;;;5046500;28;20445;-45
2021/06/28 07:37:47;;;;;;;4.85;2.20;;;;;;;;;;5069623;28;20864;-48
2021/06/28 07:40:25;;;;;;;3.83;2.10;;;;;;;;;;5052414;28;20558;-51
2021/06/28 07:43:03;;;;;;;6.15;2.60;;;;;;;;;;5049111;28;20431;-45
2021/06/28 07:45:41;;;;;;;3.80;2.75;;;;;;;;;;5068912;28;20422;-45
2021/06/28 07:48:20;;;;;;;3.85;2.78;;;;;;;;;;5104422;27;20466;-47
2021/06/28 07:50:58;;;;;;;4.82;2.85;;;;;;;;;;5101543;27;20438;-46
2021/06/28 07:53:36;;;;;;;4.43;2.95;;;;;;;;;;5049747;28;20482;-46
2021/06/28 07:56:14;;;;;;;4.80;3.10;;;;;;;;;;5048157;28;20433;-46
2021/06/28 07:58:52;;;;;;;5.95;3.00;;;;;;;;;;5061892;28;20443;-46
2021/06/28 08:01:30;;;;;;;3.92;3.08;;;;;;;;;;5053307;28;20819;-44
2021/06/28 08:04:09;;;;;;;6.93;2.67;;;;;;;;;;5060845;28;22221;-44
2021/06/28 08:06:47;;;;;;;4.20;3.13;;;;;;;;;;5063985;28;20888;-44
2021/06/28 08:09:25;;;;;;;5.18;2.15;;;;;;;;;;5062181;28;20435;-43
2021/06/28 08:12:03;;;;;;;4.20;2.70;;;;;;;;;;5055258;28;20419;-43
2021/06/28 08:14:41;;;;;;;5.57;2.50;;;;;;;;;;5069162;28;20414;-45
2021/06/28 08:17:20;;;;;;;4.32;2.70;;;;;;;;;;5036046;28;20430;-44
2021/06/28 08:19:58;;;;;;;4.13;2.67;;;;;;;;;;5046659;28;20451;-43
2021/06/28 08:22:36;;;;;;;4.25;2.70;;;;;;;;;;5090143;27;21131;-43
2021/06/28 08:25:16;;;;;;;3.85;2.72;;;;;;;;;;5066083;28;20598;-44
2021/06/28 08:27:55;;;;;;;3.70;2.60;;;;;;;;;;5062830;28;20443;-45
2021/06/28 08:30:34;;;;;;;6.57;2.75;;;;;;;;;;5049364;28;20420;-43
2021/06/28 08:33:12;;;;;;;6.18;2.67;;;;;;;;;;5053895;28;22689;-42
2021/06/28 08:35:50;;;;;;;3.50;2.30;;;;;;;;;;5070792;28;20418;-44
2021/06/28 08:38:28;;;;;;;5.70;2.17;;;;;;;;;;5036273;28;20501;-42
2021/06/28 08:41:09;;;;;;;4.15;2.22;;;;;;;;;;5067976;28;20441;-41
2021/06/28 08:43:47;;;;;;;4.25;2.72;;;;;;;;;;5062863;28;20810;-42
2021/06/28 08:46:25;;;;;;;4.40;3.00;;;;;;;;;;5062158;28;20821;-43
2021/06/28 08:49:03;;;;;;;4.03;2.60;;;;;;;;;;5044631;28;20839;-44
2021/06/28 08:51:43;;;;;;;7.45;2.55;;;;;;;;;;5066271;28;20436;-40
2021/06/28 08:54:21;;;;;;;3.17;2.33;;;;;;;;;;5057488;28;20437;-42
2021/06/28 08:57:00;;;;;;;5.47;2.47;;;;;;;;;;5150217;27;20861;-40
2021/06/28 08:59:42;;;;;;;3.70;2.28;;;;;;;;;;5128536;27;20474;-43
2021/06/28 09:02:20;;;;;;;3.33;2.40;;;;;;;;;;5060662;28;20912;-47
2021/06/28 09:05:06;;;;;;;4.28;2.20;;;;;;;;;;5088098;27;20469;-42
2021/06/28 09:07:43;;;;;;;5.47;2.13;;;;;;;;;;5099263;27;20488;-42
2021/06/28 09:10:35;;;;;;;6.15;2.20;;;;;;;;;;5053956;28;20498;-42
2021/06/28 09:13:14;;;;;;;4.95;2.33;;;;;;;;;;5056890;28;20486;-48
2021/06/28 09:15:52;;;;;;;3.53;2.28;;;;;;;;;;5079741;27;20437;-40
2021/06/28 09:18:30;;;;;;;5.25;2.00;;;;;;;;;;5110074;27;20448;-41
2021/06/28 09:21:08;;;;;;;3.55;2.50;;;;;;;;;;5103832;27;20432;-43
2021/06/28 09:23:47;;;;;;;4.20;2.42;;;;;;;;;;5070222;28;20437;-43
2021/06/28 09:26:37;;;;;;;3.40;2.10;;;;;;;;;;5106548;27;20424;-41
2021/06/28 09:29:15;;;;;;;4.13;2.28;;;;;;;;;;5106692;27;20425;-41
2021/06/28 09:31:53;;;;;;;3.78;2.45;;;;;;;;;;5057098;28;20436;-40
2021/06/28 09:34:32;;;;;;;4.55;2.40;;;;;;;;;;5040323;28;20413;-40
2021/06/28 09:37:16;;;;;;;3.00;2.40;;;;;;;;;;5105370;27;20451;-41
2021/06/28 09:39:55;;;;;;;3.22;2.28;;;;;;;;;;5053957;28;20818;-42
2021/06/28 09:42:34;;;;;;;3.00;2.38;;;;;;;;;;5055221;28;20441;-42
2021/06/28 09:45:14;;;;;;;3.92;2.33;;;;;;;;;;5065304;28;20422;-41
2021/06/28 09:47:52;;;;;;;4.05;2.30;;;;;;;;;;5149018;27;20418;-40
2021/06/28 09:50:32;;;;;;;4.68;2.20;;;;;;;;;;5091323;27;20467;-43
2021/06/28 09:53:32;;;;;;;6.30;2.22;;;;;;;;;;5178670;27;20905;-44
2021/06/28 09:56:38;;;;;;;2.92;2.20;;;;;;;;;;5117949;27;20429;-44
2021/06/28 09:59:35;;;;;;;3.70;2.03;;;;;;;;;;5084256;27;20441;-44
2021/06/28 10:02:28;;;;;;;5.50;2.30;;;;;;;;;;5125931;27;20890;-40
2021/06/28 10:05:52;;;;;;;2.83;2.10;;;;;;;;;;5101513;27;20444;-41
2021/06/28 10:09:00;;;;;;;2.83;1.98;;;;;;;;;;5180051;27;20416;-42
2021/06/28 10:11:52;;;;;;;6.00;2.10;;;;;;;;;;5093636;27;20430;-43
2021/06/28 10:14:50;;;;;;;6.70;2.40;;;;;;;;;;5124427;22;20453;-41
2021/06/28 10:17:47;;;;;;;3.00;1.95;;;;;;;;;;5191106;27;20480;-44
2021/06/28 10:20:42;;;;;;;3.03;1.80;;;;;;;;;;5175530;27;20421;-42
2021/06/28 10:23:40;;;;;;;4.38;1.90;;;;;;;;;;5069675;27;20449;-44
2021/06/28 10:26:35;;;;;;;4.47;1.90;;;;;;;;;;5181666;27;20509;-43
2021/06/28 10:29:28;;;;;;;4.78;1.85;;;;;;;;;;5088944;27;20417;-42
2021/06/28 10:32:29;;;;;;;2.17;1.70;;;;;;;;;;5077177;27;20523;-40
2021/06/28 10:35:22;;;;;;;3.08;1.70;;;;;;;;;;5068609;27;20571;-43
2021/06/28 10:38:20;;;;;;;2.30;1.67;;;;;;;;;;5086792;27;20432;-41
2021/06/28 10:41:11;;;;;;;4.20;1.83;;;;;;;;;;5108806;27;20510;-42
2021/06/28 10:44:10;;;;;;;3.65;1.65;;;;;;;;;;5127982;27;20170;-46
2021/06/28 10:46:56;;;;;;;1.90;1.60;;;;;;;;;;5055011;28;20428;-42
2021/06/28 10:49:42;;;;;;;3.50;1.63;;;;;;;;;;5060621;28;20543;-41
2021/06/28 10:52:33;;;;;;;1.88;1.50;;;;;;;;;;5059811;28;20447;-42
2021/06/28 10:55:19;;;;;;;1.75;1.40;;;;;;;;;;5055854;28;20102;-41
2021/06/28 10:58:22;;;;;;;1.60;1.50;;;;;;;;;;5069216;28;20516;-40
2021/06/28 11:01:09;;;;;;;3.50;1.40;;;;;;;;;;5049812;28;20036;-40
2021/06/28 11:04:06;;;;;;;2.47;1.50;;;;;;;;;;5052056;28;20044;-43
2021/06/28 11:06:51;;;;;;;2.28;1.40;;;;;;;;;;5067947;28;20044;-42
2021/06/28 11:09:56;;;;;;;1.63;1.42;;;;;;;;;;5060499;28;20067;-43
2021/06/28 11:12:42;;;;;;;2.30;1.23;;;;;;;;;;5048680;28;20092;-41
2021/06/28 11:15:27;;;;;;;3.53;1.40;;;;;;;;;;5062525;28;20047;-43
2021/06/28 11:18:27;;;;;;;2.38;1.27;;;;;;;;;;5065904;28;20052;-43
2021/06/28 11:21:12;;;;;;;2.47;1.40;;;;;;;;;;5051177;28;20422;-40
2021/06/28 11:23:58;;;;;;;2.50;1.58;;;;;;;;;;5048401;28;20056;-41
2021/06/28 11:26:31;;;;;;;2.40;1.17;;;;;;;;;;5067279;28;20098;-43
2021/06/28 11:29:48;;;;;;;2.65;1.70;;;;;;;;;;5139578;27;20448;-42
2021/06/28 11:32:55;;;;;;;1.80;1.30;;;;;;;;;;5084598;27;20409;-41
2021/06/28 11:35:35;;;;;;;1.30;1.20;;;;;;;;;;5066495;28;20095;-42
2021/06/28 11:38:13;;;;;;;7.03;1.55;;;;;;;;;;5052889;28;20464;-42
2021/06/28 11:40:40;;;;;;;5.43;1.45;;;;;;;;;;5057483;28;20557;-43
2021/06/28 11:43:42;;;;;;;4.03;1.30;;;;;;;;;;5089398;27;20478;-42
2021/06/28 11:46:37;;;;;;;2.22;1.40;;;;;;;;;;5117011;27;20420;-43
2021/06/28 11:49:31;;;;;;;2.05;1.45;;;;;;;;;;5124259;27;20147;-44
2021/06/28 11:52:32;;;;;;;2.33;1.55;;;;;;;;;;5083824;27;20168;-42
2021/06/28 11:55:45;;;;;;;5.55;2.08;;;;;;;;;;5092898;27;20384;-42
2021/06/28 11:58:36;;;;;;;4.13;1.88;;;;;;;;;;5086132;27;20432;-44
2021/06/28 12:01:32;;;;;;;3.90;1.27;;;;;;;;;;5080506;27;20811;-41
2021/06/28 12:04:32;;;;;;;3.05;1.45;;;;;;;;;;5074327;27;20438;-44
2021/06/28 12:07:24;;;;;;;2.95;1.50;;;;;;;;;;5088234;27;20818;-44
2021/06/28 12:10:21;;;;;;;2.05;1.30;;;;;;;;;;5127981;27;20387;-42
2021/06/28 12:13:15;;;;;;;4.07;1.30;;;;;;;;;;5104486;27;20504;-40
2021/06/28 12:16:21;;;;;;;2.50;1.30;;;;;;;;;;5047251;28;20864;-43
2021/06/28 12:19:25;;;;;;;2.75;1.38;;;;;;;;;;5113813;27;20425;-45
2021/06/28 12:22:27;;;;;;;2.42;1.35;;;;;;;;;;5080628;27;20449;-41
2021/06/28 12:25:25;;;;;;;1.80;1.40;;;;;;;;;;5087861;27;20425;-40
2021/06/28 12:28:03;;;;;;;2.72;1.30;;;;;;;;;;5046179;28;20944;-41
2021/06/28 12:30:41;;;;;;;1.95;1.33;;;;;;;;;;5068320;28;20900;-41
2021/06/28 12:33:21;;;;;;;2.33;1.40;;;;;;;;;;5064861;28;20425;-40
2021/06/28 12:36:01;;;;;;;3.53;1.50;;;;;;;;;;5067772;28;20439;-41
2021/06/28 12:38:56;;;;;;;3.88;1.40;;;;;;;;;;5087098;27;20929;-46
2021/06/28 12:41:35;;;;;;;5.05;1.35;;;;;;;;;;5067748;28;20419;-42
2021/06/28 12:44:13;;;;;;;5.22;1.55;;;;;;;;;;5068395;28;20415;-44
2021/06/28 12:46:51;;;;;;;3.80;1.33;;;;;;;;;;5068170;28;20403;-41
2021/06/28 12:49:29;;;;;;;2.70;1.55;;;;;;;;;;5065027;28;20431;-41
2021/06/28 12:52:26;;;;;;;1.73;1.40;;;;;;;;;;5067587;28;20496;-44
2021/06/28 12:55:10;;;;;;;1.50;1.40;;;;;;;;;;5062407;28;20413;-42
2021/06/28 12:58:05;;;;;;;2.85;1.77;;;;;;;;;;5083313;27;20440;-42
2021/06/28 13:00:57;;;;;;;3.08;1.60;;;;;;;;;;5085786;27;20449;-42
2021/06/28 13:04:17;;;;;;;4.35;1.50;;;;;;;;;;5126193;27;20437;-44
2021/06/28 13:07:22;;;;;;;3.03;1.40;;;;;;;;;;5083488;27;20426;-45
2021/06/28 13:10:13;;;;;;;3.38;1.40;;;;;;;;;;5090083;27;20478;-45
2021/06/28 13:13:21;;;;;;;3.92;1.50;;;;;;;;;;5104465;27;20164;-47
2021/06/28 13:19:28;;;;;;;3.05;1.40;;;;;;;;;;5184851;27;20779;-41
2021/06/28 13:22:39;;;;;;;3.13;1.42;;;;;;;;;;5117747;27;20819;-46
2021/06/28 13:25:51;;;;;;;3.92;1.60;;;;;;;;;;5104749;27;20275;-45
2021/06/28 13:28:54;;;;;;;4.38;1.65;;;;;;;;;;5082688;27;20420;-45
2021/06/28 13:32:10;;;;;;;3.03;1.70;;;;;;;;;;5068042;27;20485;-45
2021/06/28 13:35:02;;;;;;;9.40;1.70;;;;;;;;;;5103574;27;20426;-42
2021/06/28 13:38:07;;;;;;;1.80;1.27;;;;;;;;;;5124463;27;21096;-45
2021/06/28 13:40:59;;;;;;;2.03;1.55;;;;;;;;;;5068136;27;20426;-47
2021/06/28 13:44:08;;;;;;;2.08;1.40;;;;;;;;;;5078672;27;20430;-48
2021/06/28 13:47:12;;;;;;;9.23;1.80;;;;;;;;;;5050041;28;20428;-43
2021/06/28 13:50:17;;;;;;;2.42;1.40;;;;;;;;;;5110933;27;20436;-44
2021/06/28 13:53:18;;;;;;;3.75;1.70;;;;;;;;;;5126212;27;20475;-40
2021/06/28 13:56:15;;;;;;;3.22;1.70;;;;;;;;;;5112924;27;20424;-45
2021/06/28 13:59:07;;;;;;;1.95;1.40;;;;;;;;;;5090639;27;20432;-45
2021/06/28 14:02:02;;;;;;;2.50;1.50;;;;;;;;;;5137065;27;20544;-48
2021/06/28 14:04:54;;;;;;;1.88;1.30;;;;;;;;;;5099311;27;20412;-44
2021/06/28 14:07:55;;;;;;;5.07;1.58;;;;;;;;;;5098813;27;20485;-44
2021/06/28 14:11:18;;;;;;;2.70;1.60;;;;;;;;;;5071444;27;20946;-43
2021/06/28 14:14:10;;;;;;;3.00;1.40;;;;;;;;;;5089301;27;20398;-47
2021/06/28 14:17:02;;;;;;;2.13;1.50;;;;;;;;;;5124246;27;20392;-43
2021/06/28 14:19:57;;;;;;;2.90;1.15;;;;;;;;;;5190550;27;20818;-42
2021/06/28 14:23:04;;;;;;;3.45;1.40;;;;;;;;;;5127996;27;20448;-43
2021/06/28 14:25:59;;;;;;;1.83;1.40;;;;;;;;;;5089311;27;20412;-43
2021/06/28 14:28:59;;;;;;;3.45;1.60;;;;;;;;;;5181324;27;20427;-44
2021/06/28 14:32:04;;;;;;;4.38;1.38;;;;;;;;;;5130750;27;20417;-43
2021/06/28 14:34:55;;;;;;;4.03;1.55;;;;;;;;;;5089131;27;20873;-42
2021/06/28 14:37:49;;;;;;;1.98;1.48;;;;;;;;;;5120541;27;20209;-41
2021/06/28 14:40:46;;;;;;;2.72;1.40;;;;;;;;;;5133290;27;20387;-45
2021/06/28 14:43:43;;;;;;;2.20;1.42;;;;;;;;;;5088466;27;20809;-45
2021/06/28 14:46:38;;;;;;;2.05;1.38;;;;;;;;;;5104334;27;20442;-42
2021/06/28 14:49:30;;;;;;;1.83;1.25;;;;;;;;;;5089786;27;20167;-43
2021/06/28 14:52:28;;;;;;;3.80;1.50;;;;;;;;;;5079310;27;20430;-42
2021/06/28 14:55:19;;;;;;;2.13;1.60;;;;;;;;;;5070830;27;20430;-44
2021/06/28 14:58:29;;;;;;;2.17;1.48;;;;;;;;;;5126267;27;20395;-43
2021/06/28 15:01:23;;;;;;;2.42;1.40;;;;;;;;;;5118275;27;20810;-43
2021/06/28 15:04:14;;;;;;;3.72;1.52;;;;;;;;;;5109521;27;20421;-44
2021/06/28 15:07:18;;;;;;;7.18;1.90;;;;;;;;;;5110093;27;20379;-43
2021/06/28 15:10:19;;;;;;;5.50;1.58;;;;;;;;;;5013679;27;20387;-43
2021/06/28 15:13:16;;;;;;;4.75;1.40;;;;;;;;;;5149892;27;20369;-39
2021/06/28 15:16:09;;;;;;;3.10;1.35;;;;;;;;;;5120036;27;20535;-43
2021/06/28 15:19:01;;;;;;;3.25;1.52;;;;;;;;;;5128967;27;20387;-45
2021/06/28 15:22:01;;;;;;;3.20;1.40;;;;;;;;;;5113074;27;20432;-41
2021/06/28 15:25:05;;;;;;;2.55;1.30;;;;;;;;;;5113401;27;20794;-41
2021/06/28 15:28:03;;;;;;;2.15;1.35;;;;;;;;;;5089021;27;20416;-42
2021/06/28 15:30:59;;;;;;;2.08;1.40;;;;;;;;;;5137444;27;20162;-43
2021/06/28 15:33:54;;;;;;;3.20;1.58;;;;;;;;;;5184190;27;20398;-42
2021/06/28 15:36:46;;;;;;;2.38;1.50;;;;;;;;;;5088600;27;20470;-44
2021/06/28 15:39:50;;;;;;;4.28;1.38;;;;;;;;;;5070815;27;20396;-45
2021/06/28 15:42:53;;;;;;;4.05;1.50;;;;;;;;;;5029284;27;20385;-44
2021/06/28 15:45:57;;;;;;;4.13;1.35;;;;;;;;;;5110834;27;20366;-43
2021/06/28 15:48:55;;;;;;;2.85;1.30;;;;;;;;;;5116423;27;20388;-41
2021/06/28 15:51:46;;;;;;;2.03;1.35;;;;;;;;;;5126079;27;20195;-42
2021/06/28 15:54:38;;;;;;;2.22;1.20;;;;;;;;;;5090520;27;20490;-43
2021/06/28 15:57:32;;;;;;;2.00;1.20;;;;;;;;;;5100022;27;20436;-39
2021/06/28 16:00:26;;;;;;;4.32;1.30;;;;;;;;;;5120599;27;20452;-44
2021/06/28 16:03:33;;;;;;;1.55;1.30;;;;;;;;;;5130998;27;20417;-41
2021/06/28 16:06:28;;;;;;;2.83;1.33;;;;;;;;;;5191958;27;20469;-46
2021/06/28 16:09:25;;;;;;;2.28;1.48;;;;;;;;;;5091977;27;20452;-44
2021/06/28 16:12:34;;;;;;;2.90;1.42;;;;;;;;;;5130795;27;20421;-41
2021/06/28 16:15:35;;;;;;;3.47;1.75;;;;;;;;;;5103601;27;20444;-43
2021/06/28 16:18:36;;;;;;;5.55;2.28;;;;;;;;;;5137169;27;20974;-45